createdAt,value
2024-04-30T00:00:10.422Z,16.55
2024-04-30T00:01:10.493Z,16.54
2024-04-30T00:02:10.364Z,16.54
2024-04-30T00:03:10.366Z,16.51
2024-04-30T00:04:10.497Z,16.51
2024-04-30T00:05:10.412Z,16.51
2024-04-30T00:06:10.350Z,16.54
2024-04-30T00:07:10.352Z,16.49
2024-04-30T00:08:10.314Z,16.50
2024-04-30T00:09:10.333Z,16.47
2024-04-30T00:10:10.333Z,16.49
2024-04-30T00:11:10.326Z,16.47
2024-04-30T00:12:10.258Z,16.46
2024-04-30T00:13:10.305Z,16.46
2024-04-30T00:14:10.303Z,16.47
2024-04-30T00:15:10.243Z,16.46
2024-04-30T00:16:10.223Z,16.43
2024-04-30T00:17:10.226Z,16.43
2024-04-30T00:18:10.205Z,16.43
2024-04-30T00:19:10.268Z,16.43
2024-04-30T00:20:10.229Z,16.43
2024-04-30T00:21:10.158Z,16.43
2024-04-30T00:22:10.165Z,16.43
2024-04-30T00:23:10.141Z,16.40
2024-04-30T00:24:10.119Z,16.39
2024-04-30T00:25:10.190Z,16.37
2024-04-30T00:26:10.091Z,16.37
2024-04-30T00:27:10.080Z,16.34
2024-04-30T00:28:10.105Z,16.34
2024-04-30T00:29:10.074Z,16.34
2024-04-30T00:30:10.065Z,16.29
2024-04-30T00:31:10.136Z,16.29
2024-04-30T00:32:10.051Z,16.31
2024-04-30T00:33:10.076Z,16.28
2024-04-30T00:34:10.081Z,16.29
2024-04-30T00:35:10.000Z,16.25
2024-04-30T00:36:09.975Z,16.25
2024-04-30T00:37:10.017Z,16.26
2024-04-30T00:38:10.023Z,16.22
2024-04-30T00:39:09.983Z,16.22
2024-04-30T00:40:09.975Z,16.21
2024-04-30T00:41:09.930Z,16.18
2024-04-30T00:42:09.944Z,16.18
2024-04-30T00:43:09.939Z,16.16
2024-04-30T00:44:09.941Z,16.17
2024-04-30T00:45:09.905Z,16.16
2024-04-30T00:46:09.897Z,16.13
2024-04-30T00:47:09.856Z,16.12
2024-04-30T00:48:09.986Z,16.12
2024-04-30T00:49:09.902Z,16.12
2024-04-30T00:50:09.873Z,16.12
2024-04-30T00:51:09.863Z,16.10
2024-04-30T00:52:09.886Z,16.10
2024-04-30T00:53:09.785Z,16.08
2024-04-30T00:54:09.776Z,16.10
2024-04-30T00:55:09.820Z,16.09
2024-04-30T00:56:09.780Z,16.09
2024-04-30T00:57:09.807Z,16.05
2024-04-30T00:58:09.856Z,16.06
2024-04-30T00:59:09.737Z,16.05
2024-04-30T01:00:09.733Z,16.03
2024-04-30T01:01:09.855Z,16.03
2024-04-30T01:02:09.746Z,16.02
2024-04-30T01:03:09.698Z,16.00
2024-04-30T01:04:09.747Z,16.00
2024-04-30T01:05:09.867Z,15.99
2024-04-30T01:06:09.873Z,15.98
2024-04-30T01:07:09.714Z,15.94
2024-04-30T01:08:09.644Z,15.98
2024-04-30T01:09:09.655Z,15.96
2024-04-30T01:10:09.707Z,15.94
2024-04-30T01:11:09.628Z,15.94
2024-04-30T01:12:09.643Z,15.94
2024-04-30T01:13:09.591Z,15.90
2024-04-30T01:14:09.584Z,15.88
2024-04-30T01:15:09.628Z,15.90
2024-04-30T01:16:09.629Z,15.91
2024-04-30T01:17:09.565Z,15.91
2024-04-30T01:18:09.578Z,15.87
2024-04-30T01:19:09.610Z,15.85
2024-04-30T01:20:09.532Z,15.88
2024-04-30T01:21:09.500Z,15.88
2024-04-30T01:22:09.571Z,15.87
2024-04-30T01:23:09.510Z,15.85
2024-04-30T01:24:09.502Z,15.85
2024-04-30T01:25:09.503Z,15.85
2024-04-30T01:26:09.502Z,15.85
2024-04-30T01:27:09.458Z,15.84
2024-04-30T01:28:09.479Z,15.84
2024-04-30T01:29:09.408Z,15.84
2024-04-30T01:30:09.384Z,15.85
2024-04-30T01:31:09.409Z,15.84
2024-04-30T01:32:09.411Z,15.84
2024-04-30T01:33:09.506Z,15.81
2024-04-30T01:34:09.732Z,15.81
2024-04-30T01:35:10.147Z,15.80
2024-04-30T01:36:09.468Z,15.81
2024-04-30T01:37:10.240Z,15.80
2024-04-30T01:38:09.424Z,15.81
2024-04-30T01:39:09.337Z,15.80
2024-04-30T01:40:09.462Z,15.76
2024-04-30T01:41:09.279Z,15.81
2024-04-30T01:42:09.353Z,15.80
2024-04-30T01:43:09.281Z,15.78
2024-04-30T01:44:09.253Z,15.78
2024-04-30T01:45:09.245Z,15.76
2024-04-30T01:46:09.289Z,15.78
2024-04-30T01:47:09.228Z,15.76
2024-04-30T01:48:09.278Z,15.75
2024-04-30T01:49:09.298Z,15.78
2024-04-30T01:50:09.177Z,15.75
2024-04-30T01:51:09.175Z,15.76
2024-04-30T01:52:09.250Z,15.75
2024-04-30T01:53:09.144Z,15.75
2024-04-30T01:54:09.134Z,15.73
2024-04-30T01:55:09.174Z,15.75
2024-04-30T01:56:09.137Z,15.73
2024-04-30T01:57:09.115Z,15.73
2024-04-30T01:58:09.127Z,15.72
2024-04-30T01:59:09.094Z,15.72
2024-04-30T02:00:09.142Z,15.70
2024-04-30T02:01:09.169Z,15.69
2024-04-30T02:02:09.102Z,15.72
2024-04-30T02:03:09.107Z,15.69
2024-04-30T02:04:09.099Z,15.69
2024-04-30T02:05:14.117Z,15.69
2024-04-30T02:06:10.072Z,15.69
2024-04-30T02:07:09.049Z,15.66
2024-04-30T02:08:08.985Z,15.65
2024-04-30T02:09:09.018Z,15.63
2024-04-30T02:10:09.020Z,15.63
2024-04-30T02:11:08.985Z,15.63
2024-04-30T02:12:08.999Z,15.65
2024-04-30T02:13:08.952Z,15.60
2024-04-30T02:14:08.934Z,15.60
2024-04-30T02:15:08.920Z,15.59
2024-04-30T02:16:09.008Z,15.59
2024-04-30T02:17:08.935Z,15.57
2024-04-30T02:18:08.902Z,15.59
2024-04-30T02:19:08.933Z,15.54
2024-04-30T02:20:08.886Z,15.54
2024-04-30T02:21:08.832Z,15.52
2024-04-30T02:22:08.932Z,15.52
2024-04-30T02:23:08.817Z,15.50
2024-04-30T02:24:08.809Z,15.51
2024-04-30T02:25:08.860Z,15.51
2024-04-30T02:26:08.807Z,15.52
2024-04-30T02:27:08.799Z,15.50
2024-04-30T02:28:08.783Z,15.51
2024-04-30T02:29:08.767Z,15.50
2024-04-30T02:30:08.760Z,15.48
2024-04-30T02:31:08.764Z,15.48
2024-04-30T02:32:08.834Z,15.50
2024-04-30T02:33:08.767Z,15.47
2024-04-30T02:34:08.757Z,15.47
2024-04-30T02:35:08.680Z,15.45
2024-04-30T02:36:08.675Z,15.47
2024-04-30T02:37:08.743Z,15.48
2024-04-30T02:38:08.654Z,15.47
2024-04-30T02:39:08.653Z,15.47
2024-04-30T02:40:08.787Z,15.45
2024-04-30T02:41:08.615Z,15.47
2024-04-30T02:42:08.606Z,15.47
2024-04-30T02:43:08.625Z,15.45
2024-04-30T02:44:08.624Z,15.48
2024-04-30T02:45:08.567Z,15.45
2024-04-30T02:46:08.619Z,15.47
2024-04-30T02:47:08.614Z,15.44
2024-04-30T02:48:08.630Z,15.44
2024-04-30T02:49:08.566Z,15.41
2024-04-30T02:50:08.551Z,15.41
2024-04-30T02:51:08.532Z,15.44
2024-04-30T02:52:08.551Z,15.43
2024-04-30T02:53:08.531Z,15.41
2024-04-30T02:54:08.520Z,15.41
2024-04-30T02:55:08.511Z,15.43
2024-04-30T02:56:08.456Z,15.43
2024-04-30T02:57:08.444Z,15.41
2024-04-30T02:58:08.517Z,15.41
2024-04-30T02:59:08.409Z,15.39
2024-04-30T03:00:08.424Z,15.39
2024-04-30T03:01:08.439Z,15.39
2024-04-30T03:02:08.411Z,15.39
2024-04-30T03:03:08.362Z,15.43
2024-04-30T03:04:08.600Z,15.39
2024-04-30T03:05:08.376Z,15.39
2024-04-30T03:06:08.338Z,15.39
2024-04-30T03:07:08.371Z,15.36
2024-04-30T03:08:08.334Z,15.37
2024-04-30T03:09:08.299Z,15.36
2024-04-30T03:10:08.355Z,15.36
2024-04-30T03:11:08.333Z,15.36
2024-04-30T03:12:08.746Z,15.37
2024-04-30T03:13:08.294Z,15.35
2024-04-30T03:14:08.256Z,15.37
2024-04-30T03:15:08.249Z,15.36
2024-04-30T03:16:08.264Z,15.33
2024-04-30T03:17:08.352Z,15.33
2024-04-30T03:18:08.431Z,15.36
2024-04-30T03:19:08.224Z,15.35
2024-04-30T03:20:08.778Z,15.36
2024-04-30T03:21:08.399Z,15.33
2024-04-30T03:22:08.217Z,15.32
2024-04-30T03:23:08.170Z,15.32
2024-04-30T03:24:08.147Z,15.33
2024-04-30T03:25:08.150Z,15.33
2024-04-30T03:26:08.137Z,15.33
2024-04-30T03:27:08.197Z,15.33
2024-04-30T03:28:08.163Z,15.30
2024-04-30T03:29:08.137Z,15.32
2024-04-30T03:30:08.099Z,15.30
2024-04-30T03:31:08.092Z,15.29
2024-04-30T03:32:08.065Z,15.27
2024-04-30T03:33:08.100Z,15.27
2024-04-30T03:34:08.115Z,15.29
2024-04-30T03:35:08.041Z,15.29
2024-04-30T03:36:08.034Z,15.27
2024-04-30T03:37:08.043Z,15.27
2024-04-30T03:38:07.999Z,15.27
2024-04-30T03:39:08.024Z,15.25
2024-04-30T03:40:08.056Z,15.26
2024-04-30T03:41:07.955Z,15.25
2024-04-30T03:42:07.952Z,15.25
2024-04-30T03:43:08.005Z,15.23
2024-04-30T03:44:07.936Z,15.25
2024-04-30T03:45:07.934Z,15.22
2024-04-30T03:46:07.976Z,15.22
2024-04-30T03:47:07.921Z,15.22
2024-04-30T03:48:07.941Z,15.22
2024-04-30T03:49:07.911Z,15.23
2024-04-30T03:50:07.891Z,15.23
2024-04-30T03:51:07.851Z,15.22
2024-04-30T03:52:07.907Z,15.23
2024-04-30T03:53:07.851Z,15.23
2024-04-30T03:54:07.833Z,15.22
2024-04-30T03:55:07.811Z,15.22
2024-04-30T03:56:07.849Z,15.22
2024-04-30T03:57:07.787Z,15.23
2024-04-30T03:58:07.791Z,15.22
2024-04-30T03:59:07.767Z,15.22
2024-04-30T04:00:07.805Z,15.22
2024-04-30T04:01:07.795Z,15.19
2024-04-30T04:02:07.735Z,15.19
2024-04-30T04:03:07.797Z,15.18
2024-04-30T04:04:07.810Z,15.19
2024-04-30T04:05:07.836Z,15.19
2024-04-30T04:06:07.683Z,15.22
2024-04-30T04:07:07.730Z,15.22
2024-04-30T04:08:07.677Z,15.22
2024-04-30T04:09:07.649Z,15.22
2024-04-30T04:10:07.706Z,15.19
2024-04-30T04:11:07.620Z,15.19
2024-04-30T04:12:07.624Z,15.23
2024-04-30T04:13:07.671Z,15.19
2024-04-30T04:14:07.620Z,15.23
2024-04-30T04:15:07.594Z,15.18
2024-04-30T04:16:07.596Z,15.19
2024-04-30T04:17:07.585Z,15.19
2024-04-30T04:18:07.649Z,15.22
2024-04-30T04:19:07.573Z,15.18
2024-04-30T04:20:07.543Z,15.18
2024-04-30T04:21:07.565Z,15.19
2024-04-30T04:22:07.548Z,15.22
2024-04-30T04:23:07.496Z,15.22
2024-04-30T04:24:07.500Z,15.22
2024-04-30T04:25:07.525Z,15.22
2024-04-30T04:26:07.499Z,15.22
2024-04-30T04:27:07.451Z,15.18
2024-04-30T04:28:07.480Z,15.19
2024-04-30T04:29:07.428Z,15.18
2024-04-30T04:30:07.861Z,15.17
2024-04-30T04:31:07.504Z,15.17
2024-04-30T04:32:07.576Z,15.15
2024-04-30T04:33:07.445Z,15.15
2024-04-30T04:34:07.428Z,15.15
2024-04-30T04:35:07.445Z,15.15
2024-04-30T04:36:07.373Z,15.14
2024-04-30T04:37:07.394Z,15.11
2024-04-30T04:38:07.333Z,15.12
2024-04-30T04:39:07.314Z,15.11
2024-04-30T04:40:07.354Z,15.12
2024-04-30T04:41:07.386Z,15.12
2024-04-30T04:42:07.303Z,15.12
2024-04-30T04:43:09.762Z,15.10
2024-04-30T04:44:07.246Z,15.10
2024-04-30T04:45:07.293Z,15.11
2024-04-30T04:46:07.280Z,15.11
2024-04-30T04:47:07.212Z,15.11
2024-04-30T04:48:07.264Z,15.14
2024-04-30T04:49:08.354Z,15.17
2024-04-30T04:50:07.211Z,15.22
2024-04-30T04:51:07.220Z,15.19
2024-04-30T04:52:07.228Z,15.22
2024-04-30T04:53:07.156Z,15.22
2024-04-30T04:54:07.143Z,15.25
2024-04-30T04:55:07.181Z,15.26
2024-04-30T04:56:07.128Z,15.26
2024-04-30T04:57:07.112Z,15.27
2024-04-30T04:58:07.133Z,15.27
2024-04-30T04:59:07.111Z,15.26
2024-04-30T05:00:07.068Z,15.26
2024-04-30T05:01:08.903Z,15.27
2024-04-30T05:02:07.237Z,15.26
2024-04-30T05:03:07.045Z,15.26
2024-04-30T05:04:07.265Z,15.27
2024-04-30T05:05:07.099Z,15.29
2024-04-30T05:06:07.013Z,15.30
2024-04-30T05:07:07.034Z,15.26
2024-04-30T05:08:06.993Z,15.23
2024-04-30T05:09:06.997Z,15.26
2024-04-30T05:10:06.992Z,15.29
2024-04-30T05:11:07.039Z,15.29
2024-04-30T05:12:06.925Z,15.30
2024-04-30T05:13:06.967Z,15.32
2024-04-30T05:14:06.932Z,15.32
2024-04-30T05:15:06.914Z,15.32
2024-04-30T05:16:06.947Z,15.35
2024-04-30T05:17:06.975Z,15.36
2024-04-30T05:18:06.889Z,15.37
2024-04-30T05:19:06.865Z,15.37
2024-04-30T05:20:06.868Z,15.43
2024-04-30T05:21:06.837Z,15.44
2024-04-30T05:22:06.856Z,15.44
2024-04-30T05:23:06.846Z,15.45
2024-04-30T05:24:06.793Z,15.47
2024-04-30T05:25:06.814Z,15.50
2024-04-30T05:26:06.776Z,15.54
2024-04-30T05:27:06.791Z,15.52
2024-04-30T05:28:06.818Z,15.57
2024-04-30T05:29:06.777Z,15.59
2024-04-30T05:30:06.780Z,15.63
2024-04-30T05:31:06.748Z,15.66
2024-04-30T05:32:06.773Z,15.67
2024-04-30T05:33:06.842Z,15.72
2024-04-30T05:34:06.745Z,15.73
2024-04-30T05:35:06.715Z,15.78
2024-04-30T05:36:06.689Z,15.81
2024-04-30T05:37:06.744Z,15.85
2024-04-30T05:38:06.680Z,15.90
2024-04-30T05:39:06.691Z,15.92
2024-04-30T05:40:06.663Z,15.99
2024-04-30T05:41:06.647Z,16.02
2024-04-30T05:42:06.623Z,16.05
2024-04-30T05:43:06.667Z,16.08
2024-04-30T05:44:06.698Z,16.10
2024-04-30T05:45:08.297Z,16.17
2024-04-30T05:46:06.712Z,16.22
2024-04-30T05:47:06.623Z,16.26
2024-04-30T05:48:06.676Z,16.34
2024-04-30T05:49:06.565Z,16.39
2024-04-30T05:50:06.541Z,16.44
2024-04-30T05:51:06.577Z,16.47
2024-04-30T05:52:06.518Z,16.51
2024-04-30T05:53:06.528Z,16.55
2024-04-30T05:54:06.494Z,16.61
2024-04-30T05:55:06.516Z,16.64
2024-04-30T05:56:06.462Z,16.69
2024-04-30T05:57:06.485Z,16.74
2024-04-30T05:58:06.476Z,16.84
2024-04-30T05:59:06.441Z,16.99
2024-04-30T06:00:06.430Z,17.16
2024-04-30T06:01:06.518Z,17.23
2024-04-30T06:02:06.454Z,17.31
2024-04-30T06:03:06.436Z,17.44
2024-04-30T06:04:06.628Z,17.63
2024-04-30T06:05:06.583Z,17.80
2024-04-30T06:06:06.366Z,18.02
2024-04-30T06:07:06.442Z,18.16
2024-04-30T06:08:06.335Z,18.34
2024-04-30T06:09:06.380Z,18.42
2024-04-30T06:10:06.344Z,18.49
2024-04-30T06:11:06.330Z,18.52
2024-04-30T06:12:06.349Z,18.55
2024-04-30T06:13:06.336Z,18.64
2024-04-30T06:14:06.286Z,18.83
2024-04-30T06:15:06.268Z,19.04
2024-04-30T06:16:06.315Z,19.34
2024-04-30T06:17:06.236Z,19.63
2024-04-30T06:18:06.302Z,19.89
2024-04-30T06:19:06.354Z,20.04
2024-04-30T06:20:06.250Z,20.17
2024-04-30T06:21:06.569Z,20.15
2024-04-30T06:22:06.238Z,20.17
2024-04-30T06:23:06.211Z,20.14
2024-04-30T06:24:06.216Z,20.19
2024-04-30T06:25:06.209Z,20.40
2024-04-30T06:26:06.145Z,20.44
2024-04-30T06:27:06.140Z,20.49
2024-04-30T06:28:06.120Z,20.42
2024-04-30T06:29:06.104Z,20.36
2024-04-30T06:30:06.134Z,20.34
2024-04-30T06:31:06.095Z,20.40
2024-04-30T06:32:06.082Z,20.37
2024-04-30T06:33:06.317Z,20.60
2024-04-30T06:34:06.137Z,20.71
2024-04-30T06:35:06.106Z,20.59
2024-04-30T06:36:06.036Z,20.48
2024-04-30T06:37:06.091Z,20.37
2024-04-30T06:38:06.001Z,20.32
2024-04-30T06:39:06.003Z,20.27
2024-04-30T06:40:06.037Z,20.27
2024-04-30T06:41:05.976Z,20.26
2024-04-30T06:42:05.981Z,20.22
2024-04-30T06:43:05.979Z,20.21
2024-04-30T06:44:05.970Z,20.21
2024-04-30T06:45:05.928Z,20.21
2024-04-30T06:46:05.930Z,20.22
2024-04-30T06:47:05.970Z,20.21
2024-04-30T06:48:06.042Z,20.22
2024-04-30T06:49:05.943Z,20.24
2024-04-30T06:50:05.871Z,20.21
2024-04-30T06:51:05.865Z,20.19
2024-04-30T06:52:05.884Z,20.22
2024-04-30T06:53:05.840Z,20.21
2024-04-30T06:54:05.847Z,20.19
2024-04-30T06:55:05.874Z,20.11
2024-04-30T06:56:05.818Z,20.08
2024-04-30T06:57:05.808Z,20.07
2024-04-30T06:58:05.801Z,20.03
2024-04-30T06:59:05.790Z,20.08
2024-04-30T07:00:05.778Z,20.15
2024-04-30T07:01:05.893Z,20.24
2024-04-30T07:02:05.730Z,20.33
2024-04-30T07:03:05.802Z,20.42
2024-04-30T07:04:05.951Z,20.52
2024-04-30T07:05:05.887Z,20.63
2024-04-30T07:06:05.702Z,20.90
2024-04-30T07:07:05.746Z,21.14
2024-04-30T07:08:05.675Z,21.47
2024-04-30T07:09:05.685Z,21.75
2024-04-30T07:10:05.763Z,22.01
2024-04-30T07:11:05.769Z,22.21
2024-04-30T07:12:05.622Z,22.19
2024-04-30T07:13:05.640Z,22.23
2024-04-30T07:14:05.648Z,22.19
2024-04-30T07:15:05.623Z,22.04
2024-04-30T07:16:05.613Z,21.83
2024-04-30T07:17:08.572Z,21.77
2024-04-30T07:18:05.653Z,22.21
2024-04-30T07:19:05.604Z,22.51
2024-04-30T07:20:05.543Z,22.61
2024-04-30T07:21:05.531Z,22.70
2024-04-30T07:22:05.615Z,23.01
2024-04-30T07:23:05.523Z,23.26
2024-04-30T07:24:05.520Z,23.49
2024-04-30T07:25:05.551Z,23.67
2024-04-30T07:26:05.490Z,23.86
2024-04-30T07:27:05.467Z,24.04
2024-04-30T07:28:05.552Z,24.22
2024-04-30T07:29:05.452Z,24.31
2024-04-30T07:30:05.423Z,24.32
2024-04-30T07:31:05.493Z,24.46
2024-04-30T07:32:05.488Z,24.55
2024-04-30T07:33:05.503Z,24.61
2024-04-30T07:34:05.486Z,24.79
2024-04-30T07:35:05.494Z,24.97
2024-04-30T07:36:05.358Z,25.07
2024-04-30T07:37:05.409Z,25.25
2024-04-30T07:38:05.363Z,25.44
2024-04-30T07:39:05.346Z,25.59
2024-04-30T07:40:05.361Z,25.71
2024-04-30T07:41:05.324Z,25.83
2024-04-30T07:42:07.242Z,25.89
2024-04-30T07:43:05.352Z,25.86
2024-04-30T07:44:05.322Z,25.93
2024-04-30T07:45:05.280Z,26.04
2024-04-30T07:46:05.371Z,26.07
2024-04-30T07:47:05.332Z,26.26
2024-04-30T07:48:05.300Z,26.46
2024-04-30T07:49:05.267Z,26.60
2024-04-30T07:50:05.211Z,26.61
2024-04-30T07:51:05.240Z,26.76
2024-04-30T07:52:05.261Z,26.98
2024-04-30T07:53:05.205Z,27.03
2024-04-30T07:54:05.177Z,27.16
2024-04-30T07:55:05.179Z,27.34
2024-04-30T07:56:05.166Z,27.48
2024-04-30T07:57:05.137Z,27.67
2024-04-30T07:58:05.126Z,27.68
2024-04-30T07:59:05.108Z,27.71
2024-04-30T08:00:05.093Z,27.64
2024-04-30T08:01:05.178Z,27.72
2024-04-30T08:02:05.180Z,27.86
2024-04-30T08:03:05.134Z,28.00
2024-04-30T08:04:05.176Z,28.12
2024-04-30T08:05:05.050Z,28.13
2024-04-30T08:06:10.855Z,28.18
2024-04-30T08:07:06.075Z,28.22
2024-04-30T08:08:05.019Z,28.34
2024-04-30T08:09:05.014Z,28.33
2024-04-30T08:10:05.093Z,28.35
2024-04-30T08:11:05.463Z,28.43
2024-04-30T08:12:04.966Z,28.28
2024-04-30T08:13:04.983Z,28.30
2024-04-30T08:14:04.990Z,28.53
2024-04-30T08:15:04.940Z,28.64
2024-04-30T08:16:04.988Z,28.75
2024-04-30T08:17:05.066Z,29.00
2024-04-30T08:18:05.143Z,29.09
2024-04-30T08:19:04.939Z,29.09
2024-04-30T08:20:04.922Z,29.02
2024-04-30T08:21:04.894Z,29.07
2024-04-30T08:22:04.878Z,29.02
2024-04-30T08:23:05.138Z,29.18
2024-04-30T08:24:04.894Z,29.18
2024-04-30T08:25:04.898Z,29.37
2024-04-30T08:26:04.847Z,29.44
2024-04-30T08:27:04.807Z,29.32
2024-04-30T08:28:04.847Z,29.55
2024-04-30T08:29:04.796Z,29.77
2024-04-30T08:30:04.771Z,29.89
2024-04-30T08:31:04.972Z,29.94
2024-04-30T08:32:04.775Z,30.05
2024-04-30T08:33:04.817Z,30.23
2024-04-30T08:34:04.746Z,30.13
2024-04-30T08:35:04.711Z,30.08
2024-04-30T08:36:04.706Z,30.17
2024-04-30T08:37:04.737Z,30.39
2024-04-30T08:38:04.730Z,30.29
2024-04-30T08:39:04.693Z,30.55
2024-04-30T08:40:04.738Z,30.54
2024-04-30T08:41:04.660Z,29.89
2024-04-30T08:42:04.660Z,29.24
2024-04-30T08:43:04.690Z,28.78
2024-04-30T08:44:04.638Z,28.37
2024-04-30T08:45:04.642Z,28.59
2024-04-30T08:46:04.716Z,28.59
2024-04-30T08:47:04.771Z,28.47
2024-04-30T08:48:04.623Z,28.33
2024-04-30T08:49:04.605Z,28.33
2024-04-30T08:50:13.817Z,28.43
2024-04-30T08:51:05.583Z,28.86
2024-04-30T08:52:04.640Z,29.44
2024-04-30T08:53:04.603Z,29.83
2024-04-30T08:54:04.509Z,30.06
2024-04-30T08:55:04.560Z,29.87
2024-04-30T08:56:07.548Z,29.59
2024-04-30T08:57:04.485Z,29.32
2024-04-30T08:58:04.497Z,29.49
2024-04-30T08:59:04.462Z,29.37
2024-04-30T09:00:04.435Z,29.34
2024-04-30T09:01:04.656Z,29.80
2024-04-30T09:02:04.604Z,30.27
2024-04-30T09:03:04.967Z,30.86
2024-04-30T09:04:04.617Z,31.30
2024-04-30T09:05:04.434Z,31.36
2024-04-30T09:06:04.547Z,31.10
2024-04-30T09:07:04.603Z,31.28
2024-04-30T09:08:04.491Z,31.39
2024-04-30T09:09:04.456Z,31.26
2024-04-30T09:10:04.558Z,31.48
2024-04-30T09:11:04.605Z,31.78
2024-04-30T09:12:04.539Z,32.11
2024-04-30T09:13:04.531Z,32.39
2024-04-30T09:14:04.289Z,32.76
2024-04-30T09:15:04.472Z,32.86
2024-04-30T09:16:04.721Z,33.01
2024-04-30T09:17:04.308Z,33.48
2024-04-30T09:18:04.359Z,33.76
2024-04-30T09:19:04.389Z,33.77
2024-04-30T09:20:04.217Z,34.11
2024-04-30T09:21:16.231Z,34.47
2024-04-30T09:22:05.399Z,34.91
2024-04-30T09:23:04.172Z,35.20
2024-04-30T09:24:04.282Z,35.32
2024-04-30T09:25:04.261Z,35.25
2024-04-30T09:26:04.211Z,35.15
2024-04-30T09:27:04.143Z,35.23
2024-04-30T09:28:04.226Z,35.05
2024-04-30T09:29:04.132Z,35.00
2024-04-30T09:30:04.131Z,35.01
2024-04-30T09:31:04.172Z,34.19
2024-04-30T09:32:04.082Z,33.69
2024-04-30T09:33:04.248Z,34.25
2024-04-30T09:34:04.152Z,34.86
2024-04-30T09:35:04.078Z,35.05
2024-04-30T09:36:06.995Z,35.66
2024-04-30T09:37:04.124Z,35.87
2024-04-30T09:38:04.070Z,36.05
2024-04-30T09:39:04.012Z,36.13
2024-04-30T09:40:04.177Z,36.03
2024-04-30T09:41:04.019Z,35.91
2024-04-30T09:42:04.020Z,36.22
2024-04-30T09:43:03.982Z,36.26
2024-04-30T09:44:03.959Z,36.18
2024-04-30T09:45:04.113Z,36.01
2024-04-30T09:46:04.189Z,35.49
2024-04-30T09:47:04.002Z,34.78
2024-04-30T09:48:03.994Z,34.24
2024-04-30T09:49:07.695Z,33.66
2024-04-30T09:50:03.911Z,33.03
2024-04-30T09:51:03.910Z,33.22
2024-04-30T09:52:03.993Z,33.57
2024-04-30T09:53:03.881Z,33.35
2024-04-30T09:54:03.849Z,32.75
2024-04-30T09:55:03.956Z,31.73
2024-04-30T09:56:03.817Z,30.54
2024-04-30T09:57:03.808Z,29.98
2024-04-30T09:58:03.906Z,29.55
2024-04-30T09:59:03.819Z,29.50
2024-04-30T10:00:03.836Z,29.69
2024-04-30T10:01:03.840Z,29.96
2024-04-30T10:02:03.841Z,30.16
2024-04-30T10:03:03.784Z,30.86
2024-04-30T10:04:03.786Z,31.67
2024-04-30T10:05:04.036Z,32.30
2024-04-30T10:06:03.851Z,32.35
2024-04-30T10:07:03.721Z,32.22
2024-04-30T10:08:03.708Z,32.49
2024-04-30T10:09:03.699Z,32.75
2024-04-30T10:10:03.674Z,32.48
2024-04-30T10:11:03.719Z,32.09
2024-04-30T10:12:03.656Z,32.08
2024-04-30T10:13:03.641Z,32.17
2024-04-30T10:14:03.658Z,31.90
2024-04-30T10:15:03.634Z,32.12
2024-04-30T10:16:03.660Z,32.51
2024-04-30T10:17:03.695Z,32.66
2024-04-30T10:18:03.671Z,32.41
2024-04-30T10:19:03.590Z,32.15
2024-04-30T10:20:03.593Z,31.85
2024-04-30T10:21:03.626Z,31.89
2024-04-30T10:22:03.545Z,31.87
2024-04-30T10:23:03.582Z,32.15
2024-04-30T10:24:03.521Z,31.90
2024-04-30T10:25:03.560Z,31.07
2024-04-30T10:26:03.532Z,30.74
2024-04-30T10:27:03.502Z,30.70
2024-04-30T10:28:03.503Z,30.71
2024-04-30T10:29:03.481Z,30.78
2024-04-30T10:30:03.600Z,30.78
2024-04-30T10:31:03.435Z,30.89
2024-04-30T10:32:03.505Z,30.91
2024-04-30T10:33:03.631Z,30.70
2024-04-30T10:34:03.486Z,30.03
2024-04-30T10:35:03.422Z,29.77
2024-04-30T10:36:03.450Z,29.44
2024-04-30T10:37:03.373Z,29.58
2024-04-30T10:38:03.394Z,29.80
2024-04-30T10:39:03.392Z,29.74
2024-04-30T10:40:03.381Z,29.71
2024-04-30T10:41:03.330Z,29.74
2024-04-30T10:42:03.402Z,29.89
2024-04-30T10:43:03.365Z,30.08
2024-04-30T10:44:03.329Z,30.27
2024-04-30T10:45:03.341Z,30.33
2024-04-30T10:46:03.393Z,30.48
2024-04-30T10:47:03.383Z,30.40
2024-04-30T10:48:03.437Z,30.62
2024-04-30T10:49:03.322Z,30.67
2024-04-30T10:51:03.252Z,30.83
2024-04-30T10:52:03.298Z,31.05
2024-04-30T10:53:03.248Z,31.25
2024-04-30T10:54:03.218Z,31.57
2024-04-30T10:55:03.226Z,31.35
2024-04-30T10:56:03.241Z,31.23
2024-04-30T10:57:03.196Z,30.95
2024-04-30T10:58:03.193Z,30.71
2024-04-30T10:59:03.213Z,30.55
2024-04-30T11:00:03.156Z,31.07
2024-04-30T11:01:03.187Z,31.93
2024-04-30T11:02:04.207Z,32.90
2024-04-30T11:03:03.172Z,33.92
2024-04-30T11:04:03.106Z,34.60
2024-04-30T11:05:03.344Z,35.01
2024-04-30T11:06:03.148Z,35.25
2024-04-30T11:07:03.163Z,35.57
2024-04-30T11:08:03.077Z,35.81
2024-04-30T11:09:03.032Z,35.44
2024-04-30T11:10:03.036Z,35.45
2024-04-30T11:11:03.051Z,35.42
2024-04-30T11:12:03.040Z,35.42
2024-04-30T11:13:03.008Z,35.32
2024-04-30T11:14:03.015Z,35.30
2024-04-30T11:15:02.965Z,35.27
2024-04-30T11:16:08.212Z,34.69
2024-04-30T11:17:04.065Z,34.38
2024-04-30T11:18:03.155Z,34.33
2024-04-30T11:19:02.955Z,34.22
2024-04-30T11:20:03.002Z,34.44
2024-04-30T11:21:02.928Z,34.35
2024-04-30T11:22:02.964Z,34.29
2024-04-30T11:23:02.955Z,34.09
2024-04-30T11:24:02.906Z,34.26
2024-04-30T11:25:02.877Z,33.72
2024-04-30T11:26:02.914Z,33.23
2024-04-30T11:27:02.847Z,33.57
2024-04-30T11:28:02.917Z,33.67
2024-04-30T11:29:16.277Z,33.95
2024-04-30T11:30:03.859Z,34.00
2024-04-30T11:31:02.829Z,34.31
2024-04-30T11:32:02.818Z,34.46
2024-04-30T11:33:02.873Z,34.46
2024-04-30T11:34:02.784Z,34.38
2024-04-30T11:35:02.780Z,34.81
2024-04-30T11:36:02.780Z,35.15
2024-04-30T11:37:02.770Z,35.39
2024-04-30T11:38:02.870Z,35.00
2024-04-30T11:39:02.735Z,35.16
2024-04-30T11:40:02.748Z,35.88
2024-04-30T11:41:02.719Z,36.53
2024-04-30T11:42:13.536Z,37.11
2024-04-30T11:43:03.733Z,37.38
2024-04-30T11:44:02.673Z,38.16
2024-04-30T11:45:02.878Z,38.36
2024-04-30T11:46:02.701Z,38.96
2024-04-30T11:47:02.693Z,39.17
2024-04-30T11:48:02.847Z,39.63
2024-04-30T11:49:02.659Z,39.37
2024-04-30T11:50:02.682Z,39.37
2024-04-30T11:51:02.618Z,39.76
2024-04-30T11:52:02.649Z,39.97
2024-04-30T11:53:02.770Z,39.89
2024-04-30T11:54:02.593Z,39.78
2024-04-30T11:55:02.609Z,40.40
2024-04-30T11:56:02.563Z,39.80
2024-04-30T11:57:02.627Z,39.95
2024-04-30T11:58:02.547Z,40.51
2024-04-30T11:59:02.574Z,40.71
2024-04-30T12:00:02.570Z,40.83
2024-04-30T12:01:02.589Z,41.30
2024-04-30T12:02:02.703Z,41.58
2024-04-30T12:03:02.562Z,41.81
2024-04-30T12:04:02.579Z,41.86
2024-04-30T12:05:02.616Z,41.71
2024-04-30T12:06:02.493Z,41.88
2024-04-30T12:07:02.443Z,42.07
2024-04-30T12:08:02.459Z,42.00
2024-04-30T12:09:02.544Z,41.61
2024-04-30T12:10:02.428Z,41.67
2024-04-30T12:11:02.589Z,41.86
2024-04-30T12:12:02.435Z,42.03
2024-04-30T12:13:02.421Z,41.99
2024-04-30T12:14:02.439Z,42.43
2024-04-30T12:15:02.376Z,42.59
2024-04-30T12:16:02.383Z,42.92
2024-04-30T12:17:02.566Z,43.09
2024-04-30T12:18:02.413Z,43.08
2024-04-30T12:19:02.354Z,42.63
2024-04-30T12:20:02.383Z,42.78
2024-04-30T12:21:02.318Z,42.89
2024-04-30T12:22:02.312Z,42.81
2024-04-30T12:23:02.324Z,42.49
2024-04-30T12:24:02.382Z,42.61
2024-04-30T12:25:02.284Z,42.66
2024-04-30T12:26:02.310Z,42.75
2024-04-30T12:27:02.283Z,42.44
2024-04-30T12:28:02.294Z,42.34
2024-04-30T12:29:02.243Z,42.06
2024-04-30T12:30:02.244Z,41.36
2024-04-30T12:31:02.219Z,41.18
2024-04-30T12:32:02.316Z,41.65
2024-04-30T12:33:02.264Z,41.96
2024-04-30T12:34:02.274Z,42.00
2024-04-30T12:35:02.192Z,41.76
2024-04-30T12:36:02.206Z,42.05
2024-04-30T12:37:02.194Z,42.02
2024-04-30T12:38:02.157Z,41.76
2024-04-30T12:39:02.178Z,41.60
2024-04-30T12:40:05.056Z,41.45
2024-04-30T12:41:02.193Z,41.46
2024-04-30T12:42:02.116Z,41.96
2024-04-30T12:43:02.153Z,42.40
2024-04-30T12:44:02.152Z,42.52
2024-04-30T12:45:02.068Z,42.86
2024-04-30T12:46:05.378Z,42.07
2024-04-30T12:47:02.076Z,41.61
2024-04-30T12:48:02.314Z,42.18
2024-04-30T12:49:02.069Z,42.09
2024-04-30T12:50:02.037Z,41.81
2024-04-30T12:51:02.047Z,41.36
2024-04-30T12:52:02.095Z,41.15
2024-04-30T12:53:02.087Z,40.83